Vero Beach, Florida
Current Conditions -  °F | °C
As of 9:53 AM on Sunday 23 Nov 2014 (Local Time) from KVRB Reporting Station
Broken Clouds Broken Clouds  
Wind Chill: 77°   Ceiling: 2600
Heat Index: 78°   Visibility: 9mi
Dew Point: 73°   Wind: 14mph
Humidity: 88%   Direction: 150°SSE
Pressure: 30.04"   Gusts: NA
Location:  27.64°N, 80.39°W
Report Text: KVRB 231453Z 15012KT 9SM SCT017 BKN026 25/23 A3004 RMK AO2 SLP172 60000 T02500228 51006
Loading
Personal Weather Stations






























Interactive Weather Map New forecast layout! Learn more

10-Day Weather Forecast

Advertisements
Track Severe Weather on mobile